createdAt,value
2022-08-16T00:00:27.565Z,31.01
2022-08-16T00:02:59.025Z,31.01
2022-08-16T00:05:34.914Z,31.00
2022-08-16T00:08:06.668Z,30.97
2022-08-16T00:10:39.222Z,30.96
2022-08-16T00:13:13.451Z,30.94
2022-08-16T00:15:51.999Z,30.94
2022-08-16T00:18:29.737Z,30.94
2022-08-16T00:21:01.071Z,30.92
2022-08-16T00:23:40.344Z,30.91
2022-08-16T00:26:35.717Z,30.90
2022-08-16T00:29:08.204Z,30.92
2022-08-16T00:31:59.318Z,30.92
2022-08-16T00:34:44.220Z,30.52
2022-08-16T00:37:24.118Z,30.02
2022-08-16T00:39:57.208Z,29.78
2022-08-16T00:42:32.341Z,29.55
2022-08-16T00:45:10.315Z,29.33
2022-08-16T00:47:49.602Z,29.08
2022-08-16T00:50:35.855Z,28.86
2022-08-16T00:53:09.948Z,28.76
2022-08-16T00:55:45.674Z,28.87
2022-08-16T00:58:34.411Z,28.94
2022-08-16T01:01:08.587Z,29.01
2022-08-16T01:03:42.839Z,29.03
2022-08-16T01:06:32.545Z,28.96
2022-08-16T01:09:08.749Z,28.69
2022-08-16T01:11:53.723Z,28.42
2022-08-16T01:14:30.311Z,28.13
2022-08-16T01:17:03.576Z,27.93
2022-08-16T01:19:43.949Z,27.78
2022-08-16T01:22:46.863Z,27.66
2022-08-16T01:25:16.009Z,27.57
2022-08-16T01:27:50.846Z,27.55
2022-08-16T01:30:26.353Z,27.48
2022-08-16T01:33:02.599Z,27.43
2022-08-16T01:35:52.644Z,27.40
2022-08-16T01:38:28.710Z,27.32
2022-08-16T01:41:02.604Z,27.28
2022-08-16T01:43:35.834Z,27.23
2022-08-16T01:46:29.321Z,27.11
2022-08-16T01:49:05.364Z,27.01
2022-08-16T01:51:39.332Z,26.96
2022-08-16T01:54:10.660Z,26.90
2022-08-16T01:56:44.268Z,26.86
2022-08-16T01:59:17.491Z,26.81
2022-08-16T02:01:56.250Z,26.77
2022-08-16T02:04:49.079Z,26.69
2022-08-16T02:07:23.929Z,26.60
2022-08-16T02:09:58.814Z,26.55
2022-08-16T02:12:49.707Z,26.52
2022-08-16T02:15:25.406Z,26.52
2022-08-16T02:17:57.360Z,26.47
2022-08-16T02:20:30.504Z,26.40
2022-08-16T02:23:05.767Z,26.34
2022-08-16T02:25:51.068Z,26.28
2022-08-16T02:28:24.849Z,26.22
2022-08-16T02:30:57.436Z,26.25
2022-08-16T02:33:43.636Z,26.25
2022-08-16T02:36:47.656Z,26.21
2022-08-16T02:39:12.436Z,26.15
2022-08-16T02:41:53.262Z,26.10
2022-08-16T02:44:27.036Z,26.06
2022-08-16T02:46:59.477Z,26.02
2022-08-16T02:49:58.591Z,25.99
2022-08-16T02:52:29.231Z,25.99
2022-08-16T02:55:00.489Z,25.98
2022-08-16T02:57:32.921Z,25.99
2022-08-16T03:00:34.429Z,26.04
2022-08-16T03:03:00.007Z,25.98
2022-08-16T03:05:31.710Z,25.94
2022-08-16T03:08:05.051Z,25.93
2022-08-16T03:10:36.965Z,25.94
2022-08-16T03:13:12.557Z,25.92
2022-08-16T03:15:43.561Z,25.90
2022-08-16T03:18:34.183Z,25.90
2022-08-16T03:21:10.122Z,25.90
2022-08-16T03:23:44.369Z,25.86
2022-08-16T03:26:16.359Z,25.82
2022-08-16T03:28:49.059Z,25.76
2022-08-16T03:31:19.738Z,25.71
2022-08-16T03:33:52.169Z,25.65
2022-08-16T03:36:31.158Z,25.58
2022-08-16T03:39:03.612Z,25.52
2022-08-16T03:41:49.657Z,25.49
2022-08-16T03:44:40.759Z,25.44
2022-08-16T03:47:12.728Z,25.39
2022-08-16T03:49:51.751Z,25.32
2022-08-16T03:52:23.962Z,25.24
2022-08-16T03:55:02.988Z,25.19
2022-08-16T03:57:35.412Z,25.15
2022-08-16T04:00:35.144Z,25.12
2022-08-16T04:03:07.701Z,25.07
2022-08-16T04:05:44.480Z,25.04
2022-08-16T04:08:23.666Z,25.04
2022-08-16T04:10:58.070Z,25.03
2022-08-16T04:14:01.032Z,25.06
2022-08-16T04:16:26.343Z,25.06
2022-08-16T04:19:02.604Z,25.08
2022-08-16T04:21:46.187Z,25.08
2022-08-16T04:24:18.923Z,25.07
2022-08-16T04:26:50.745Z,25.06
2022-08-16T04:29:23.542Z,25.04
2022-08-16T04:31:57.931Z,25.04
2022-08-16T04:34:32.843Z,25.03
2022-08-16T04:37:05.247Z,25.00
2022-08-16T04:39:46.858Z,25.01
2022-08-16T04:42:25.913Z,25.01
2022-08-16T04:45:02.508Z,25.07
2022-08-16T04:47:35.966Z,25.08
2022-08-16T04:50:10.699Z,25.06
2022-08-16T04:52:42.260Z,25.08
2022-08-16T04:55:15.538Z,25.16
2022-08-16T04:57:53.797Z,25.21
2022-08-16T05:00:31.812Z,25.27
2022-08-16T05:03:07.591Z,25.37
2022-08-16T05:05:55.436Z,25.41
2022-08-16T05:08:31.359Z,25.47
2022-08-16T05:11:05.668Z,25.56
2022-08-16T05:13:41.312Z,25.72
2022-08-16T05:16:20.388Z,25.86
2022-08-16T05:18:56.893Z,25.93
2022-08-16T05:21:38.232Z,26.04
2022-08-16T05:24:10.227Z,26.14
2022-08-16T05:26:50.664Z,26.22
2022-08-16T05:29:22.373Z,26.25
2022-08-16T05:31:55.861Z,26.28
2022-08-16T05:34:26.549Z,26.38
2022-08-16T05:36:58.827Z,26.47
2022-08-16T05:39:30.097Z,26.54
2022-08-16T05:42:04.998Z,26.59
2022-08-16T05:44:36.303Z,26.59
2022-08-16T05:47:07.723Z,26.61
2022-08-16T05:49:40.261Z,26.64
2022-08-16T05:52:13.695Z,26.73
2022-08-16T05:55:00.927Z,26.80
2022-08-16T05:57:34.429Z,26.92
2022-08-16T06:00:10.227Z,27.01
2022-08-16T06:02:41.123Z,27.09
2022-08-16T06:05:12.816Z,27.19
2022-08-16T06:07:46.813Z,27.26
2022-08-16T06:10:32.433Z,27.34
2022-08-16T06:13:04.409Z,27.44
2022-08-16T06:15:35.257Z,27.50
2022-08-16T06:18:06.266Z,27.60
2022-08-16T06:20:55.211Z,27.64
2022-08-16T06:23:27.185Z,27.71
2022-08-16T06:26:03.833Z,27.79
2022-08-16T06:28:38.693Z,27.87
2022-08-16T06:31:12.729Z,27.93
2022-08-16T06:33:44.915Z,27.99
2022-08-16T06:36:17.022Z,28.03
2022-08-16T06:38:55.296Z,28.07
2022-08-16T06:41:27.753Z,28.13
2022-08-16T06:43:58.695Z,28.17
2022-08-16T06:46:34.527Z,28.22
2022-08-16T06:49:07.799Z,28.26
2022-08-16T06:51:45.983Z,28.32
2022-08-16T06:54:19.008Z,28.37
2022-08-16T06:56:54.212Z,28.44
2022-08-16T06:59:26.149Z,28.52
2022-08-16T07:01:59.806Z,28.58
2022-08-16T07:04:33.420Z,28.61
2022-08-16T07:07:09.711Z,28.65
2022-08-16T07:09:41.062Z,28.69
2022-08-16T07:12:15.422Z,28.74
2022-08-16T07:14:49.158Z,28.79
2022-08-16T07:17:21.777Z,28.85
2022-08-16T07:20:03.423Z,28.90
2022-08-16T07:22:58.884Z,28.96
2022-08-16T07:25:30.486Z,29.02
2022-08-16T07:28:02.249Z,29.07
2022-08-16T07:30:38.985Z,29.11
2022-08-16T07:33:52.467Z,29.18
2022-08-16T07:36:10.697Z,29.23
2022-08-16T07:38:42.145Z,29.29
2022-08-16T07:41:13.343Z,29.34
2022-08-16T07:43:47.531Z,29.38
2022-08-16T07:46:39.417Z,29.41
2022-08-16T07:49:11.342Z,29.44
2022-08-16T07:51:43.079Z,29.46
2022-08-16T07:54:21.116Z,29.48
2022-08-16T07:57:03.366Z,29.44
2022-08-16T07:59:42.763Z,29.39
2022-08-16T08:02:20.181Z,29.44
2022-08-16T08:04:51.955Z,29.50
2022-08-16T08:07:27.702Z,29.56
2022-08-16T08:09:59.978Z,29.60
2022-08-16T08:12:36.055Z,29.65
2022-08-16T08:15:10.708Z,29.70
2022-08-16T08:17:43.954Z,29.73
2022-08-16T08:20:20.644Z,29.74
2022-08-16T08:23:00.782Z,29.74
2022-08-16T08:25:53.791Z,29.76
2022-08-16T08:28:23.564Z,29.79
2022-08-16T08:31:01.128Z,29.82
2022-08-16T08:33:34.667Z,29.85
2022-08-16T08:36:08.470Z,29.88
2022-08-16T08:38:44.099Z,29.92
2022-08-16T08:41:18.655Z,29.95
2022-08-16T08:43:50.737Z,29.98
2022-08-16T08:46:23.660Z,30.01
2022-08-16T08:48:59.981Z,30.04
2022-08-16T08:51:36.709Z,30.07
2022-08-16T08:54:09.383Z,30.13
2022-08-16T08:56:45.486Z,30.15
2022-08-16T08:59:20.449Z,30.18
2022-08-16T09:01:57.602Z,30.19
2022-08-16T09:04:30.300Z,30.19
2022-08-16T09:07:01.925Z,30.19
2022-08-16T09:09:34.203Z,30.22
2022-08-16T09:12:35.554Z,30.25
2022-08-16T09:15:00.798Z,30.29
2022-08-16T09:17:49.035Z,30.31
2022-08-16T09:20:23.787Z,30.30
2022-08-16T09:22:57.193Z,30.29
2022-08-16T09:25:33.899Z,30.26
2022-08-16T09:28:08.959Z,30.27
2022-08-16T09:30:44.179Z,30.31
2022-08-16T09:33:19.672Z,30.36
2022-08-16T09:35:53.514Z,30.39
2022-08-16T09:38:31.867Z,30.42
2022-08-16T09:41:06.183Z,30.44
2022-08-16T09:44:00.563Z,30.43
2022-08-16T09:46:45.372Z,30.44
2022-08-16T09:49:21.608Z,30.45
2022-08-16T09:51:55.485Z,30.44
2022-08-16T09:54:32.499Z,30.50
2022-08-16T09:57:04.004Z,30.54
2022-08-16T09:59:38.663Z,30.55
2022-08-16T10:02:23.051Z,30.54
2022-08-16T10:04:59.695Z,30.59
2022-08-16T10:07:38.295Z,30.62
2022-08-16T10:10:18.959Z,30.66
2022-08-16T10:13:16.406Z,30.64
2022-08-16T10:15:54.805Z,30.66
2022-08-16T10:18:56.475Z,30.68
2022-08-16T10:21:18.869Z,30.69
2022-08-16T10:23:54.872Z,30.73
2022-08-16T10:27:17.249Z,30.77
2022-08-16T10:29:19.941Z,30.78
2022-08-16T10:31:53.606Z,30.80
2022-08-16T10:34:31.147Z,30.81
2022-08-16T10:37:04.921Z,30.81
2022-08-16T10:39:42.108Z,30.84
2022-08-16T10:42:14.355Z,30.88
2022-08-16T10:44:46.697Z,30.91
2022-08-16T10:47:26.650Z,30.93
2022-08-16T10:50:01.378Z,30.95
2022-08-16T10:58:11.642Z,31.00
2022-08-16T11:00:43.646Z,31.05
2022-08-16T11:06:12.342Z,31.12
2022-08-16T11:08:45.761Z,31.12
2022-08-16T11:11:19.763Z,31.16
2022-08-16T11:14:10.630Z,31.19
2022-08-16T11:19:33.594Z,31.24
2022-08-16T11:22:47.353Z,31.29
2022-08-16T11:26:06.364Z,31.29
2022-08-16T11:28:09.963Z,31.30
2022-08-16T11:30:42.556Z,31.32
2022-08-16T11:33:17.547Z,31.34
2022-08-16T11:38:52.062Z,31.38
2022-08-16T11:41:30.824Z,31.41
2022-08-16T11:44:03.431Z,31.42
2022-08-16T11:46:44.212Z,31.45
2022-08-16T11:49:16.894Z,31.46
2022-08-16T11:51:50.169Z,31.49
2022-08-16T11:54:21.499Z,31.50
2022-08-16T11:56:57.270Z,31.48
2022-08-16T11:59:29.481Z,31.50
2022-08-16T12:02:04.333Z,31.51
2022-08-16T12:04:52.151Z,31.50
2022-08-16T12:07:24.484Z,31.51
2022-08-16T12:09:56.271Z,31.53
2022-08-16T12:12:28.555Z,31.55
2022-08-16T12:15:00.266Z,31.58
2022-08-16T12:17:32.576Z,31.60
2022-08-16T12:20:07.606Z,31.62
2022-08-16T12:22:39.243Z,31.65
2022-08-16T12:25:12.684Z,31.68
2022-08-16T12:27:49.765Z,31.69
2022-08-16T12:30:38.793Z,31.70
2022-08-16T12:33:12.346Z,31.74
2022-08-16T12:35:46.776Z,31.76
2022-08-16T12:38:41.463Z,31.82
2022-08-16T12:41:10.022Z,31.84
2022-08-16T12:43:45.329Z,31.84
2022-08-16T12:46:16.268Z,31.82
2022-08-16T12:48:59.441Z,31.82
2022-08-16T12:51:58.581Z,31.82
2022-08-16T12:54:24.202Z,31.82
2022-08-16T12:56:56.324Z,31.83
2022-08-16T12:59:31.075Z,31.84
2022-08-16T13:02:02.231Z,31.86
2022-08-16T13:04:37.810Z,31.88
2022-08-16T13:07:09.003Z,31.89
2022-08-16T13:09:49.181Z,31.91
2022-08-16T13:12:23.782Z,31.91
2022-08-16T13:14:57.068Z,31.91
2022-08-16T13:17:29.646Z,31.93
2022-08-16T13:20:09.450Z,31.95
2022-08-16T13:22:45.091Z,31.96
2022-08-16T13:25:21.148Z,31.97
2022-08-16T13:28:03.101Z,31.97
2022-08-16T13:30:41.743Z,31.98
2022-08-16T13:33:24.827Z,31.99
2022-08-16T13:36:01.560Z,32.04
2022-08-16T13:38:36.423Z,32.08
2022-08-16T13:41:12.469Z,32.15
2022-08-16T13:43:44.214Z,32.22
2022-08-16T13:46:29.042Z,32.26
2022-08-16T13:49:02.078Z,32.30
2022-08-16T13:51:33.509Z,32.32
2022-08-16T13:54:06.157Z,32.34
2022-08-16T13:56:40.001Z,32.35
2022-08-16T13:59:20.886Z,32.37
2022-08-16T14:01:55.367Z,32.37
2022-08-16T14:04:27.920Z,32.41
2022-08-16T14:07:00.904Z,32.45
2022-08-16T14:09:33.737Z,32.47
2022-08-16T14:12:17.534Z,32.48
2022-08-16T14:14:54.478Z,32.49
2022-08-16T14:17:28.330Z,32.51
2022-08-16T14:19:59.621Z,32.54
2022-08-16T14:22:39.954Z,32.58
2022-08-16T14:25:16.607Z,32.60
2022-08-16T14:27:52.388Z,32.62
2022-08-16T14:30:26.246Z,32.63
2022-08-16T14:32:58.046Z,32.66
2022-08-16T14:35:45.036Z,32.67
2022-08-16T14:38:24.020Z,32.69
2022-08-16T14:40:56.029Z,32.67
2022-08-16T14:43:29.790Z,32.69
2022-08-16T14:46:01.986Z,32.70
2022-08-16T14:48:38.538Z,32.71
2022-08-16T14:51:09.816Z,32.71
2022-08-16T14:53:45.381Z,32.72
2022-08-16T14:56:38.166Z,32.73
2022-08-16T14:59:08.604Z,32.74
2022-08-16T15:01:59.391Z,32.75
2022-08-16T15:04:40.223Z,32.75
2022-08-16T15:07:21.741Z,32.76
2022-08-16T15:10:00.569Z,32.77
2022-08-16T15:12:36.086Z,32.79
2022-08-16T15:15:12.451Z,32.80
2022-08-16T15:17:54.483Z,32.80
2022-08-16T15:20:29.845Z,32.81
2022-08-16T15:23:02.928Z,32.83
2022-08-16T15:25:41.386Z,32.85
2022-08-16T15:28:31.029Z,32.86
2022-08-16T15:31:05.956Z,32.86
2022-08-16T15:33:43.388Z,32.87
2022-08-16T15:36:19.376Z,32.87
2022-08-16T15:38:56.783Z,32.88
2022-08-16T15:42:04.158Z,32.88
2022-08-16T15:44:44.160Z,32.87
2022-08-16T15:47:26.319Z,32.87
2022-08-16T15:49:58.255Z,32.87
2022-08-16T15:52:32.079Z,32.89
2022-08-16T15:55:07.363Z,32.90
2022-08-16T15:57:41.570Z,32.90
2022-08-16T16:00:15.780Z,32.90
2022-08-16T16:02:49.510Z,32.89
2022-08-16T16:05:20.535Z,32.89
2022-08-16T16:07:55.546Z,32.90
2022-08-16T16:10:29.808Z,32.91
2022-08-16T16:13:03.896Z,32.91
2022-08-16T16:15:38.733Z,32.92
2022-08-16T16:18:12.086Z,32.91
2022-08-16T16:20:47.105Z,32.93
2022-08-16T16:23:21.151Z,32.94
2022-08-16T16:25:55.940Z,32.92
2022-08-16T16:29:06.023Z,32.90
2022-08-16T16:31:22.067Z,32.90
2022-08-16T16:33:56.304Z,32.89
2022-08-16T16:36:29.906Z,32.90
2022-08-16T16:39:01.303Z,32.92
2022-08-16T16:41:33.285Z,32.93
2022-08-16T16:44:05.245Z,32.94
2022-08-16T16:46:43.295Z,32.96
2022-08-16T16:49:15.921Z,32.96
2022-08-16T16:51:50.293Z,32.97
2022-08-16T16:54:27.522Z,32.97
2022-08-16T16:56:59.708Z,32.95
2022-08-16T16:59:30.847Z,32.95
2022-08-16T17:02:41.746Z,32.94
2022-08-16T17:04:55.350Z,32.94
2022-08-16T17:07:26.390Z,32.93
2022-08-16T17:09:59.353Z,32.94
2022-08-16T17:12:47.205Z,32.94
2022-08-16T17:15:21.747Z,32.96
2022-08-16T17:17:59.679Z,32.97
2022-08-16T17:20:31.619Z,32.96
2022-08-16T17:23:04.146Z,32.96
2022-08-16T17:25:36.765Z,32.98
2022-08-16T17:28:58.201Z,32.99
2022-08-16T17:31:00.451Z,32.97
2022-08-16T17:33:37.070Z,32.97
2022-08-16T17:36:11.310Z,32.98
2022-08-16T17:39:02.340Z,33.00
2022-08-16T17:41:33.341Z,33.02
2022-08-16T17:44:05.526Z,33.02
2022-08-16T17:46:50.954Z,33.00
2022-08-16T17:49:23.845Z,32.99
2022-08-16T17:51:54.942Z,32.99
2022-08-16T17:54:30.765Z,32.98
2022-08-16T17:57:02.015Z,32.98
2022-08-16T17:59:38.279Z,33.00
2022-08-16T18:02:44.199Z,32.99
2022-08-16T18:05:04.910Z,32.98
2022-08-16T18:07:37.701Z,32.99
2022-08-16T18:10:11.157Z,33.00
2022-08-16T18:12:54.718Z,32.98
2022-08-16T18:15:27.684Z,32.93
2022-08-16T18:17:58.778Z,32.90
2022-08-16T18:20:47.488Z,32.89
2022-08-16T18:23:21.849Z,32.88
2022-08-16T18:25:57.497Z,32.88
2022-08-16T18:28:30.369Z,32.87
2022-08-16T18:31:05.622Z,32.84
2022-08-16T18:33:43.517Z,32.84
2022-08-16T18:36:20.733Z,32.82
2022-08-16T18:38:54.236Z,32.81
2022-08-16T18:41:27.960Z,32.79
2022-08-16T18:44:23.002Z,32.76
2022-08-16T18:46:50.924Z,32.73
2022-08-16T18:49:22.229Z,32.71
2022-08-16T18:51:56.717Z,32.69
2022-08-16T18:54:29.301Z,32.66
2022-08-16T18:57:02.421Z,32.67
2022-08-16T18:59:36.987Z,32.68
2022-08-16T19:02:08.774Z,32.68
2022-08-16T19:05:01.181Z,32.67
2022-08-16T19:07:32.298Z,32.67
2022-08-16T19:10:05.468Z,32.66
2022-08-16T19:12:38.523Z,32.65
2022-08-16T19:15:17.414Z,32.60
2022-08-16T19:17:48.723Z,32.58
2022-08-16T19:20:21.858Z,32.57
2022-08-16T19:23:10.055Z,32.52
2022-08-16T19:25:48.347Z,32.47
2022-08-16T19:28:51.474Z,32.46
2022-08-16T19:31:20.649Z,32.42
2022-08-16T19:33:54.827Z,32.43
2022-08-16T19:36:31.980Z,32.43
2022-08-16T19:39:08.718Z,32.43
2022-08-16T19:41:42.097Z,32.42
2022-08-16T19:44:14.059Z,32.43
2022-08-16T19:46:46.670Z,32.42
2022-08-16T19:49:17.961Z,32.42
2022-08-16T19:51:49.772Z,32.41
2022-08-16T19:54:20.716Z,32.40
2022-08-16T19:56:51.839Z,32.39
2022-08-16T19:59:39.494Z,32.38
2022-08-16T20:02:32.626Z,32.37
2022-08-16T20:05:09.090Z,32.36
2022-08-16T20:07:40.148Z,32.34
2022-08-16T20:10:13.627Z,32.30
2022-08-16T20:13:01.822Z,32.26
2022-08-16T20:15:34.280Z,32.25
2022-08-16T20:18:17.164Z,32.25
2022-08-16T20:20:56.543Z,32.23
2022-08-16T20:23:27.797Z,32.22
2022-08-16T20:25:58.906Z,32.21
2022-08-16T20:28:39.396Z,32.20
2022-08-16T20:31:21.105Z,32.18
2022-08-16T20:33:52.599Z,32.16
2022-08-16T20:36:24.650Z,32.14
2022-08-16T20:38:59.574Z,32.11
2022-08-16T20:41:30.408Z,32.11
2022-08-16T20:44:01.447Z,32.12
2022-08-16T20:46:32.752Z,32.11
2022-08-16T20:49:10.858Z,32.09
2022-08-16T20:51:46.679Z,32.08
2022-08-16T20:54:18.225Z,32.07
2022-08-16T20:56:49.934Z,32.06
2022-08-16T20:59:20.905Z,32.06
2022-08-16T21:01:51.891Z,32.04
2022-08-16T21:04:24.617Z,32.01
2022-08-16T21:06:58.465Z,32.02
2022-08-16T21:09:33.613Z,31.99
2022-08-16T21:12:07.440Z,31.99
2022-08-16T21:14:39.118Z,31.98
2022-08-16T21:17:10.883Z,31.98
2022-08-16T21:19:42.312Z,31.98
2022-08-16T21:22:19.075Z,31.97
2022-08-16T21:24:53.813Z,31.94
2022-08-16T21:27:25.841Z,31.92
2022-08-16T21:29:56.776Z,31.91
2022-08-16T21:32:34.865Z,31.91
2022-08-16T21:35:13.207Z,31.91
2022-08-16T21:37:44.386Z,31.91
2022-08-16T21:40:37.161Z,31.91
2022-08-16T21:43:14.695Z,31.91
2022-08-16T21:45:47.444Z,31.89
2022-08-16T21:48:18.415Z,31.89
2022-08-16T21:51:07.615Z,31.86
2022-08-16T21:53:37.835Z,31.85
2022-08-16T21:56:16.900Z,31.81
2022-08-16T21:58:53.124Z,31.83
2022-08-16T22:01:25.441Z,31.82
2022-08-16T22:04:35.589Z,31.82
2022-08-16T22:06:46.110Z,31.80
2022-08-16T22:09:17.338Z,31.78
2022-08-16T22:11:48.541Z,31.83
2022-08-16T22:14:19.697Z,31.87
2022-08-16T22:16:50.737Z,31.89
2022-08-16T22:19:21.883Z,31.67
2022-08-16T22:21:52.915Z,31.45
2022-08-16T22:24:23.832Z,31.32
2022-08-16T22:26:54.918Z,31.11
2022-08-16T22:29:25.882Z,30.91
2022-08-16T22:31:56.821Z,30.80
2022-08-16T22:34:27.806Z,30.74
2022-08-16T22:36:58.693Z,30.70
2022-08-16T22:39:29.972Z,30.64
2022-08-16T22:42:06.000Z,30.54
2022-08-16T22:44:37.284Z,30.40
2022-08-16T22:47:09.114Z,30.28
2022-08-16T22:49:40.040Z,30.18
2022-08-16T22:52:12.339Z,30.06
2022-08-16T22:54:48.001Z,29.92
2022-08-16T22:57:19.866Z,29.87
2022-08-16T22:59:52.721Z,29.78
2022-08-16T23:02:22.258Z,29.67
2022-08-16T23:04:53.208Z,29.52
2022-08-16T23:07:25.475Z,29.50
2022-08-16T23:09:56.201Z,29.41
2022-08-16T23:12:29.743Z,29.35
2022-08-16T23:15:04.699Z,29.29
2022-08-16T23:17:36.168Z,29.23
2022-08-16T23:20:08.121Z,29.18
2022-08-16T23:23:21.151Z,29.15
2022-08-16T23:25:40.564Z,29.13
2022-08-16T23:28:11.974Z,29.07
2022-08-16T23:30:44.867Z,29.02
2022-08-16T23:33:16.640Z,28.95
2022-08-16T23:35:50.148Z,28.91
2022-08-16T23:38:37.993Z,28.87
2022-08-16T23:41:12.441Z,28.83
2022-08-16T23:43:44.805Z,28.81
2022-08-16T23:46:19.581Z,28.78
2022-08-16T23:50:00.471Z,28.89
2022-08-16T23:51:41.282Z,28.85
2022-08-16T23:54:12.157Z,28.70
2022-08-16T23:56:42.831Z,28.56
2022-08-16T23:59:13.564Z,28.46
